sensor_id;sensor_type;location;lat;lon;timestamp;P1;durP1;ratioP1;P2;durP2;ratioP2
16246;SDS011;8231;50.866;7.944;2023-05-10T00:01:38;2.60;;;2.40;;
16246;SDS011;8231;50.866;7.944;2023-05-10T00:04:07;4.70;;;2.55;;
16246;SDS011;8231;50.866;7.944;2023-05-10T00:06:35;4.05;;;2.42;;
16246;SDS011;8231;50.866;7.944;2023-05-10T00:09:04;2.20;;;2.00;;
16246;SDS011;8231;50.866;7.944;2023-05-10T00:11:34;3.10;;;2.90;;
16246;SDS011;8231;50.866;7.944;2023-05-10T00:14:02;2.65;;;2.45;;
16246;SDS011;8231;50.866;7.944;2023-05-10T00:16:31;2.75;;;2.55;;
16246;SDS011;8231;50.866;7.944;2023-05-10T00:18:59;3.67;;;3.17;;
16246;SDS011;8231;50.866;7.944;2023-05-10T00:21:27;4.10;;;3.80;;
16246;SDS011;8231;50.866;7.944;2023-05-10T00:23:55;4.10;;;3.80;;
16246;SDS011;8231;50.866;7.944;2023-05-10T00:26:24;4.63;;;4.22;;
16246;SDS011;8231;50.866;7.944;2023-05-10T00:28:55;3.40;;;3.10;;
16246;SDS011;8231;50.866;7.944;2023-05-10T00:31:25;3.30;;;3.05;;
16246;SDS011;8231;50.866;7.944;2023-05-10T00:33:53;3.40;;;2.95;;
16246;SDS011;8231;50.866;7.944;2023-05-10T00:36:22;3.90;;;3.20;;
16246;SDS011;8231;50.866;7.944;2023-05-10T00:38:51;3.80;;;3.50;;
16246;SDS011;8231;50.866;7.944;2023-05-10T00:41:19;3.03;;;2.83;;
16246;SDS011;8231;50.866;7.944;2023-05-10T00:43:47;3.33;;;3.13;;
16246;SDS011;8231;50.866;7.944;2023-05-10T00:46:17;3.88;;;3.58;;
16246;SDS011;8231;50.866;7.944;2023-05-10T00:48:45;4.13;;;2.88;;
16246;SDS011;8231;50.866;7.944;2023-05-10T00:51:14;3.08;;;2.75;;
16246;SDS011;8231;50.866;7.944;2023-05-10T00:53:43;2.22;;;2.13;;
16246;SDS011;8231;50.866;7.944;2023-05-10T00:56:12;3.75;;;3.45;;
16246;SDS011;8231;50.866;7.944;2023-05-10T00:58:41;4.18;;;3.15;;
16246;SDS011;8231;50.866;7.944;2023-05-10T01:01:09;3.65;;;3.45;;
16246;SDS011;8231;50.866;7.944;2023-05-10T01:03:40;2.83;;;2.63;;
16246;SDS011;8231;50.866;7.944;2023-05-10T01:06:09;2.97;;;2.67;;
16246;SDS011;8231;50.866;7.944;2023-05-10T01:08:38;2.63;;;2.42;;
16246;SDS011;8231;50.866;7.944;2023-05-10T01:11:06;2.63;;;2.42;;
16246;SDS011;8231;50.866;7.944;2023-05-10T01:13:35;2.70;;;2.50;;
16246;SDS011;8231;50.866;7.944;2023-05-10T01:16:06;2.63;;;2.42;;
16246;SDS011;8231;50.866;7.944;2023-05-10T01:18:36;2.90;;;2.70;;
16246;SDS011;8231;50.866;7.944;2023-05-10T01:21:14;2.30;;;2.20;;
16246;SDS011;8231;50.866;7.944;2023-05-10T01:23:57;2.70;;;2.50;;
16246;SDS011;8231;50.866;7.944;2023-05-10T01:26:56;3.60;;;3.10;;
16246;SDS011;8231;50.866;7.944;2023-05-10T01:32:55;4.45;;;3.25;;
16246;SDS011;8231;50.866;7.944;2023-05-10T01:35:30;3.60;;;3.30;;
16246;SDS011;8231;50.866;7.944;2023-05-10T01:38:07;7.78;;;3.85;;
16246;SDS011;8231;50.866;7.944;2023-05-10T01:40:42;3.63;;;3.33;;
16246;SDS011;8231;50.866;7.944;2023-05-10T01:43:17;4.63;;;3.70;;
16246;SDS011;8231;50.866;7.944;2023-05-10T01:45:54;4.00;;;3.50;;
16246;SDS011;8231;50.866;7.944;2023-05-10T01:48:32;3.83;;;3.53;;
16246;SDS011;8231;50.866;7.944;2023-05-10T01:51:01;4.30;;;3.90;;
16246;SDS011;8231;50.866;7.944;2023-05-10T01:53:30;5.38;;;4.85;;
16246;SDS011;8231;50.866;7.944;2023-05-10T01:55:59;4.00;;;3.67;;
16246;SDS011;8231;50.866;7.944;2023-05-10T01:58:30;4.53;;;4.13;;
16246;SDS011;8231;50.866;7.944;2023-05-10T02:01:01;5.35;;;4.95;;
16246;SDS011;8231;50.866;7.944;2023-05-10T02:03:33;5.38;;;4.97;;
16246;SDS011;8231;50.866;7.944;2023-05-10T02:06:04;4.55;;;4.25;;
16246;SDS011;8231;50.866;7.944;2023-05-10T02:08:34;5.05;;;4.65;;
16246;SDS011;8231;50.866;7.944;2023-05-10T02:11:04;5.90;;;5.40;;
16246;SDS011;8231;50.866;7.944;2023-05-10T02:13:32;6.97;;;5.88;;
16246;SDS011;8231;50.866;7.944;2023-05-10T02:16:03;5.65;;;4.97;;
16246;SDS011;8231;50.866;7.944;2023-05-10T02:18:35;5.32;;;4.82;;
16246;SDS011;8231;50.866;7.944;2023-05-10T02:21:04;5.65;;;5.15;;
16246;SDS011;8231;50.866;7.944;2023-05-10T02:23:32;6.68;;;6.05;;
16246;SDS011;8231;50.866;7.944;2023-05-10T02:26:01;7.03;;;6.32;;
16246;SDS011;8231;50.866;7.944;2023-05-10T02:28:32;7.40;;;6.70;;
16246;SDS011;8231;50.866;7.944;2023-05-10T02:31:02;10.25;;;6.05;;
16246;SDS011;8231;50.866;7.944;2023-05-10T02:33:32;7.22;;;6.53;;
16246;SDS011;8231;50.866;7.944;2023-05-10T02:36:03;6.30;;;5.75;;
16246;SDS011;8231;50.866;7.944;2023-05-10T02:38:31;6.80;;;6.10;;
16246;SDS011;8231;50.866;7.944;2023-05-10T02:41:01;6.55;;;5.95;;
16246;SDS011;8231;50.866;7.944;2023-05-10T02:43:32;9.27;;;6.57;;
16246;SDS011;8231;50.866;7.944;2023-05-10T02:46:02;7.57;;;6.88;;
16246;SDS011;8231;50.866;7.944;2023-05-10T02:48:30;8.07;;;7.28;;
16246;SDS011;8231;50.866;7.944;2023-05-10T02:51:02;8.50;;;7.60;;
16246;SDS011;8231;50.866;7.944;2023-05-10T02:53:35;10.25;;;7.32;;
16246;SDS011;8231;50.866;7.944;2023-05-10T02:56:09;8.65;;;7.85;;
16246;SDS011;8231;50.866;7.944;2023-05-10T02:58:41;8.90;;;8.00;;
16246;SDS011;8231;50.866;7.944;2023-05-10T03:01:10;9.45;;;8.20;;
16246;SDS011;8231;50.866;7.944;2023-05-10T03:03:38;9.48;;;8.48;;
16246;SDS011;8231;50.866;7.944;2023-05-10T03:06:08;10.15;;;9.15;;
16246;SDS011;8231;50.866;7.944;2023-05-10T03:08:37;10.50;;;9.50;;
16246;SDS011;8231;50.866;7.944;2023-05-10T03:11:22;10.07;;;8.98;;
16246;SDS011;8231;50.866;7.944;2023-05-10T03:14:04;10.07;;;9.07;;
16246;SDS011;8231;50.866;7.944;2023-05-10T03:16:41;17.45;;;9.30;;
16246;SDS011;8231;50.866;7.944;2023-05-10T03:19:16;11.82;;;10.63;;
16246;SDS011;8231;50.866;7.944;2023-05-10T03:21:52;13.30;;;11.32;;
16246;SDS011;8231;50.866;7.944;2023-05-10T03:24:23;12.40;;;10.88;;
16246;SDS011;8231;50.866;7.944;2023-05-10T03:26:58;10.65;;;9.55;;
16246;SDS011;8231;50.866;7.944;2023-05-10T03:29:29;12.95;;;11.18;;
16246;SDS011;8231;50.866;7.944;2023-05-10T03:31:58;12.25;;;10.68;;
16246;SDS011;8231;50.866;7.944;2023-05-10T03:34:29;12.80;;;10.38;;
16246;SDS011;8231;50.866;7.944;2023-05-10T03:37:00;12.50;;;10.70;;
16246;SDS011;8231;50.866;7.944;2023-05-10T03:39:30;13.82;;;10.93;;
16246;SDS011;8231;50.866;7.944;2023-05-10T03:42:00;11.77;;;10.57;;
16246;SDS011;8231;50.866;7.944;2023-05-10T03:44:29;13.75;;;10.38;;
16246;SDS011;8231;50.866;7.944;2023-05-10T03:46:57;13.60;;;11.40;;
16246;SDS011;8231;50.866;7.944;2023-05-10T03:49:26;12.82;;;11.43;;
16246;SDS011;8231;50.866;7.944;2023-05-10T03:51:54;11.85;;;9.60;;
16246;SDS011;8231;50.866;7.944;2023-05-10T03:54:24;10.60;;;9.52;;
16246;SDS011;8231;50.866;7.944;2023-05-10T03:56:52;11.27;;;10.07;;
16246;SDS011;8231;50.866;7.944;2023-05-10T03:59:21;11.95;;;10.55;;
16246;SDS011;8231;50.866;7.944;2023-05-10T04:01:50;10.43;;;8.90;;
16246;SDS011;8231;50.866;7.944;2023-05-10T04:04:18;10.50;;;8.65;;
16246;SDS011;8231;50.866;7.944;2023-05-10T04:06:49;9.75;;;8.48;;
16246;SDS011;8231;50.866;7.944;2023-05-10T04:16:15;4.95;;;3.80;;
16246;SDS011;8231;50.866;7.944;2023-05-10T04:18:44;3.60;;;3.22;;
16246;SDS011;8231;50.866;7.944;2023-05-10T04:23:50;5.38;;;3.10;;
16246;SDS011;8231;50.866;7.944;2023-05-10T04:26:18;3.10;;;2.90;;
16246;SDS011;8231;50.866;7.944;2023-05-10T04:28:48;3.20;;;2.72;;
16246;SDS011;8231;50.866;7.944;2023-05-10T04:31:16;3.40;;;3.10;;
16246;SDS011;8231;50.866;7.944;2023-05-10T04:33:44;6.82;;;4.05;;
16246;SDS011;8231;50.866;7.944;2023-05-10T04:36:13;3.95;;;3.65;;
16246;SDS011;8231;50.866;7.944;2023-05-10T04:38:42;4.57;;;4.18;;
16246;SDS011;8231;50.866;7.944;2023-05-10T04:41:10;6.68;;;4.65;;
16246;SDS011;8231;50.866;7.944;2023-05-10T04:43:38;5.40;;;4.90;;
16246;SDS011;8231;50.866;7.944;2023-05-10T04:46:08;4.95;;;4.55;;
16246;SDS011;8231;50.866;7.944;2023-05-10T04:48:36;5.15;;;4.70;;
16246;SDS011;8231;50.866;7.944;2023-05-10T04:51:05;6.28;;;4.70;;
16246;SDS011;8231;50.866;7.944;2023-05-10T04:53:33;5.53;;;5.03;;
16246;SDS011;8231;50.866;7.944;2023-05-10T04:56:01;5.25;;;4.82;;
16246;SDS011;8231;50.866;7.944;2023-05-10T04:58:30;7.85;;;6.32;;
16246;SDS011;8231;50.866;7.944;2023-05-10T05:01:04;5.93;;;5.40;;
16246;SDS011;8231;50.866;7.944;2023-05-10T05:03:34;6.53;;;6.03;;
16246;SDS011;8231;50.866;7.944;2023-05-10T05:06:03;6.80;;;6.20;;
16246;SDS011;8231;50.866;7.944;2023-05-10T05:08:32;6.93;;;6.32;;
16246;SDS011;8231;50.866;7.944;2023-05-10T05:11:00;6.78;;;5.57;;
16246;SDS011;8231;50.866;7.944;2023-05-10T05:13:28;5.57;;;4.97;;
16246;SDS011;8231;50.866;7.944;2023-05-10T05:15:57;6.85;;;6.15;;
16246;SDS011;8231;50.866;7.944;2023-05-10T05:18:28;5.70;;;4.85;;
16246;SDS011;8231;50.866;7.944;2023-05-10T05:20:58;6.45;;;5.07;;
16246;SDS011;8231;50.866;7.944;2023-05-10T05:23:27;6.25;;;5.65;;
16246;SDS011;8231;50.866;7.944;2023-05-10T05:25:55;6.50;;;5.80;;
16246;SDS011;8231;50.866;7.944;2023-05-10T05:28:23;6.55;;;5.93;;
16246;SDS011;8231;50.866;7.944;2023-05-10T05:30:51;6.53;;;5.93;;
16246;SDS011;8231;50.866;7.944;2023-05-10T05:33:19;7.07;;;6.43;;
16246;SDS011;8231;50.866;7.944;2023-05-10T05:35:48;9.20;;;6.57;;
16246;SDS011;8231;50.866;7.944;2023-05-10T05:38:18;7.78;;;7.07;;
16246;SDS011;8231;50.866;7.944;2023-05-10T05:40:46;8.80;;;6.53;;
16246;SDS011;8231;50.866;7.944;2023-05-10T05:43:15;6.75;;;6.00;;
16246;SDS011;8231;50.866;7.944;2023-05-10T05:45:43;10.15;;;6.50;;
16246;SDS011;8231;50.866;7.944;2023-05-10T05:48:11;6.95;;;6.25;;
16246;SDS011;8231;50.866;7.944;2023-05-10T05:50:39;7.80;;;6.28;;
16246;SDS011;8231;50.866;7.944;2023-05-10T05:53:08;8.23;;;6.57;;
16246;SDS011;8231;50.866;7.944;2023-05-10T05:55:38;7.47;;;5.97;;
16246;SDS011;8231;50.866;7.944;2023-05-10T05:58:06;7.47;;;6.80;;
16246;SDS011;8231;50.866;7.944;2023-05-10T06:00:34;7.88;;;6.85;;
16246;SDS011;8231;50.866;7.944;2023-05-10T06:03:03;9.90;;;6.80;;
16246;SDS011;8231;50.866;7.944;2023-05-10T06:05:31;7.70;;;6.97;;
16246;SDS011;8231;50.866;7.944;2023-05-10T06:07:59;8.00;;;7.07;;
16246;SDS011;8231;50.866;7.944;2023-05-10T06:10:28;7.55;;;6.68;;
16246;SDS011;8231;50.866;7.944;2023-05-10T06:12:58;8.15;;;7.38;;
16246;SDS011;8231;50.866;7.944;2023-05-10T06:15:26;9.80;;;7.38;;
16246;SDS011;8231;50.866;7.944;2023-05-10T06:17:55;9.85;;;8.68;;
16246;SDS011;8231;50.866;7.944;2023-05-10T06:20:23;9.25;;;6.95;;
16246;SDS011;8231;50.866;7.944;2023-05-10T06:22:51;8.18;;;7.38;;
16246;SDS011;8231;50.866;7.944;2023-05-10T06:25:19;6.88;;;6.07;;
16246;SDS011;8231;50.866;7.944;2023-05-10T06:27:48;6.55;;;5.95;;
16246;SDS011;8231;50.866;7.944;2023-05-10T06:30:20;7.80;;;6.55;;
16246;SDS011;8231;50.866;7.944;2023-05-10T06:32:54;6.78;;;5.68;;
16246;SDS011;8231;50.866;7.944;2023-05-10T06:35:22;5.53;;;5.03;;
16246;SDS011;8231;50.866;7.944;2023-05-10T06:37:50;9.63;;;4.85;;
16246;SDS011;8231;50.866;7.944;2023-05-10T06:40:19;6.90;;;5.07;;
16246;SDS011;8231;50.866;7.944;2023-05-10T06:42:47;6.43;;;5.68;;
16246;SDS011;8231;50.866;7.944;2023-05-10T06:45:16;8.13;;;5.18;;
16246;SDS011;8231;50.866;7.944;2023-05-10T06:47:46;5.72;;;5.07;;
16246;SDS011;8231;50.866;7.944;2023-05-10T06:50:15;7.90;;;6.57;;
16246;SDS011;8231;50.866;7.944;2023-05-10T06:52:44;5.90;;;4.68;;
16246;SDS011;8231;50.866;7.944;2023-05-10T06:55:12;6.50;;;5.50;;
16246;SDS011;8231;50.866;7.944;2023-05-10T06:57:41;9.77;;;6.78;;
16246;SDS011;8231;50.866;7.944;2023-05-10T07:00:09;8.52;;;6.10;;
16246;SDS011;8231;50.866;7.944;2023-05-10T07:02:38;7.63;;;6.07;;
16246;SDS011;8231;50.866;7.944;2023-05-10T07:05:08;7.90;;;7.10;;
16246;SDS011;8231;50.866;7.944;2023-05-10T07:07:37;6.72;;;6.13;;
16246;SDS011;8231;50.866;7.944;2023-05-10T07:10:05;7.78;;;6.35;;
16246;SDS011;8231;50.866;7.944;2023-05-10T07:12:35;7.18;;;6.47;;
16246;SDS011;8231;50.866;7.944;2023-05-10T07:15:03;8.02;;;7.32;;
16246;SDS011;8231;50.866;7.944;2023-05-10T07:17:32;7.75;;;7.00;;
16246;SDS011;8231;50.866;7.944;2023-05-10T07:20:01;8.02;;;6.93;;
16246;SDS011;8231;50.866;7.944;2023-05-10T07:22:31;8.50;;;6.68;;
16246;SDS011;8231;50.866;7.944;2023-05-10T07:25:00;8.18;;;7.38;;
16246;SDS011;8231;50.866;7.944;2023-05-10T07:27:28;8.68;;;7.28;;
16246;SDS011;8231;50.866;7.944;2023-05-10T07:29:57;8.65;;;6.93;;
16246;SDS011;8231;50.866;7.944;2023-05-10T07:32:27;7.30;;;6.60;;
16246;SDS011;8231;50.866;7.944;2023-05-10T07:34:55;6.88;;;6.22;;
16246;SDS011;8231;50.866;7.944;2023-05-10T07:37:24;9.18;;;8.02;;
16246;SDS011;8231;50.866;7.944;2023-05-10T07:39:53;11.88;;;10.73;;
16246;SDS011;8231;50.866;7.944;2023-05-10T07:42:22;17.40;;;15.10;;
16246;SDS011;8231;50.866;7.944;2023-05-10T07:44:50;19.98;;;17.13;;
16246;SDS011;8231;50.866;7.944;2023-05-10T07:47:18;21.17;;;17.63;;
16246;SDS011;8231;50.866;7.944;2023-05-10T07:49:46;22.38;;;19.55;;
16246;SDS011;8231;50.866;7.944;2023-05-10T07:52:15;24.23;;;19.35;;
16246;SDS011;8231;50.866;7.944;2023-05-10T07:54:43;24.73;;;20.25;;
16246;SDS011;8231;50.866;7.944;2023-05-10T07:57:13;26.35;;;21.35;;
16246;SDS011;8231;50.866;7.944;2023-05-10T07:59:43;26.67;;;21.50;;
16246;SDS011;8231;50.866;7.944;2023-05-10T08:02:12;28.60;;;22.42;;
16246;SDS011;8231;50.866;7.944;2023-05-10T08:04:40;29.67;;;23.10;;
16246;SDS011;8231;50.866;7.944;2023-05-10T08:07:09;25.40;;;22.58;;
16246;SDS011;8231;50.866;7.944;2023-05-10T08:09:37;27.70;;;22.92;;
16246;SDS011;8231;50.866;7.944;2023-05-10T08:12:29;29.48;;;24.70;;
16246;SDS011;8231;50.866;7.944;2023-05-10T08:14:58;26.88;;;23.88;;
16246;SDS011;8231;50.866;7.944;2023-05-10T08:17:26;32.20;;;24.50;;
16246;SDS011;8231;50.866;7.944;2023-05-10T08:19:55;25.25;;;22.55;;
16246;SDS011;8231;50.866;7.944;2023-05-10T08:22:23;27.95;;;22.85;;
16246;SDS011;8231;50.866;7.944;2023-05-10T08:24:51;28.27;;;23.05;;
16246;SDS011;8231;50.866;7.944;2023-05-10T08:27:20;27.83;;;23.85;;
16246;SDS011;8231;50.866;7.944;2023-05-10T08:29:49;25.88;;;22.75;;
16246;SDS011;8231;50.866;7.944;2023-05-10T08:32:18;23.58;;;21.08;;
16246;SDS011;8231;50.866;7.944;2023-05-10T08:34:46;22.42;;;19.05;;
16246;SDS011;8231;50.866;7.944;2023-05-10T08:37:14;22.73;;;20.38;;
16246;SDS011;8231;50.866;7.944;2023-05-10T08:39:43;22.85;;;19.77;;
16246;SDS011;8231;50.866;7.944;2023-05-10T08:42:12;24.45;;;19.55;;
16246;SDS011;8231;50.866;7.944;2023-05-10T08:44:43;23.27;;;20.80;;
16246;SDS011;8231;50.866;7.944;2023-05-10T08:47:16;23.35;;;19.67;;
16246;SDS011;8231;50.866;7.944;2023-05-10T08:49:47;22.98;;;18.35;;
16246;SDS011;8231;50.866;7.944;2023-05-10T08:52:17;23.13;;;19.30;;
16246;SDS011;8231;50.866;7.944;2023-05-10T08:54:47;19.70;;;17.27;;
16246;SDS011;8231;50.866;7.944;2023-05-10T08:57:15;21.27;;;18.95;;
16246;SDS011;8231;50.866;7.944;2023-05-10T08:59:43;19.17;;;17.23;;
16246;SDS011;8231;50.866;7.944;2023-05-10T09:02:12;19.50;;;17.30;;
16246;SDS011;8231;50.866;7.944;2023-05-10T09:04:45;18.40;;;16.38;;
16246;SDS011;8231;50.866;7.944;2023-05-10T09:07:15;18.70;;;16.50;;
16246;SDS011;8231;50.866;7.944;2023-05-10T09:09:44;20.58;;;18.45;;
16246;SDS011;8231;50.866;7.944;2023-05-10T09:12:13;18.15;;;16.25;;
16246;SDS011;8231;50.866;7.944;2023-05-10T09:14:43;17.38;;;14.73;;
16246;SDS011;8231;50.866;7.944;2023-05-10T09:17:12;15.60;;;14.10;;
16246;SDS011;8231;50.866;7.944;2023-05-10T09:19:41;15.73;;;14.23;;
16246;SDS011;8231;50.866;7.944;2023-05-10T09:22:11;16.30;;;14.68;;
16246;SDS011;8231;50.866;7.944;2023-05-10T09:24:40;14.65;;;13.25;;
16246;SDS011;8231;50.866;7.944;2023-05-10T09:27:11;16.77;;;13.05;;
16246;SDS011;8231;50.866;7.944;2023-05-10T09:29:41;18.60;;;15.15;;
16246;SDS011;8231;50.866;7.944;2023-05-10T09:32:10;13.68;;;12.35;;
16246;SDS011;8231;50.866;7.944;2023-05-10T09:34:39;16.23;;;14.55;;
16246;SDS011;8231;50.866;7.944;2023-05-10T09:37:08;14.20;;;12.07;;
16246;SDS011;8231;50.866;7.944;2023-05-10T09:39:38;13.93;;;12.18;;
16246;SDS011;8231;50.866;7.944;2023-05-10T09:42:08;13.70;;;12.40;;
16246;SDS011;8231;50.866;7.944;2023-05-10T09:44:36;15.85;;;11.85;;
16246;SDS011;8231;50.866;7.944;2023-05-10T09:47:05;13.18;;;11.23;;
16246;SDS011;8231;50.866;7.944;2023-05-10T09:49:34;13.13;;;11.85;;
16246;SDS011;8231;50.866;7.944;2023-05-10T09:52:02;12.18;;;11.15;;
16246;SDS011;8231;50.866;7.944;2023-05-10T09:54:32;11.40;;;10.27;;
16246;SDS011;8231;50.866;7.944;2023-05-10T09:57:02;11.13;;;10.00;;
16246;SDS011;8231;50.866;7.944;2023-05-10T09:59:32;13.55;;;11.40;;
16246;SDS011;8231;50.866;7.944;2023-05-10T10:02:01;13.52;;;10.48;;
16246;SDS011;8231;50.866;7.944;2023-05-10T10:04:30;10.13;;;9.10;;
16246;SDS011;8231;50.866;7.944;2023-05-10T10:07:00;10.98;;;9.80;;
16246;SDS011;8231;50.866;7.944;2023-05-10T10:09:30;13.43;;;9.48;;
16246;SDS011;8231;50.866;7.944;2023-05-10T10:11:59;9.27;;;8.30;;
16246;SDS011;8231;50.866;7.944;2023-05-10T10:14:29;9.45;;;8.57;;
16246;SDS011;8231;50.866;7.944;2023-05-10T10:17:00;8.85;;;7.90;;
16246;SDS011;8231;50.866;7.944;2023-05-10T10:19:32;9.32;;;7.25;;
16246;SDS011;8231;50.866;7.944;2023-05-10T10:22:01;5.80;;;5.32;;
16246;SDS011;8231;50.866;7.944;2023-05-10T10:24:30;9.77;;;7.50;;
16246;SDS011;8231;50.866;7.944;2023-05-10T10:27:00;6.75;;;6.15;;
16246;SDS011;8231;50.866;7.944;2023-05-10T10:29:39;6.30;;;5.70;;
16246;SDS011;8231;50.866;7.944;2023-05-10T10:32:19;6.38;;;5.43;;
16246;SDS011;8231;50.866;7.944;2023-05-10T10:34:54;5.63;;;5.22;;
16246;SDS011;8231;50.866;7.944;2023-05-10T10:37:23;4.75;;;4.35;;
16246;SDS011;8231;50.866;7.944;2023-05-10T10:40:24;3.58;;;3.28;;
16246;SDS011;8231;50.866;7.944;2023-05-10T10:48:47;3.55;;;3.25;;
16246;SDS011;8231;50.866;7.944;2023-05-10T10:51:17;4.68;;;3.10;;
16246;SDS011;8231;50.866;7.944;2023-05-10T10:53:46;3.78;;;3.30;;
16246;SDS011;8231;50.866;7.944;2023-05-10T10:56:15;3.58;;;3.05;;
16246;SDS011;8231;50.866;7.944;2023-05-10T10:58:51;3.30;;;2.80;;
16246;SDS011;8231;50.866;7.944;2023-05-10T11:01:21;6.38;;;3.30;;
16246;SDS011;8231;50.866;7.944;2023-05-10T11:06:47;6.78;;;6.07;;
16246;SDS011;8231;50.866;7.944;2023-05-10T11:09:15;3.97;;;3.17;;
16246;SDS011;8231;50.866;7.944;2023-05-10T11:11:51;5.40;;;4.90;;
16246;SDS011;8231;50.866;7.944;2023-05-10T11:14:22;4.38;;;3.90;;
16246;SDS011;8231;50.866;7.944;2023-05-10T11:16:51;10.50;;;4.05;;
16246;SDS011;8231;50.866;7.944;2023-05-10T11:19:20;21.13;;;6.50;;
16246;SDS011;8231;50.866;7.944;2023-05-10T11:21:48;7.85;;;4.57;;
16246;SDS011;8231;50.866;7.944;2023-05-10T11:24:18;6.45;;;3.92;;
16246;SDS011;8231;50.866;7.944;2023-05-10T11:26:49;3.85;;;3.45;;
16246;SDS011;8231;50.866;7.944;2023-05-10T11:29:18;3.92;;;3.63;;
16246;SDS011;8231;50.866;7.944;2023-05-10T11:31:47;4.43;;;4.03;;
16246;SDS011;8231;50.866;7.944;2023-05-10T11:34:26;5.38;;;3.72;;
16246;SDS011;8231;50.866;7.944;2023-05-10T11:36:57;5.80;;;4.20;;
16246;SDS011;8231;50.866;7.944;2023-05-10T11:39:25;7.70;;;3.50;;
16246;SDS011;8231;50.866;7.944;2023-05-10T11:41:55;5.60;;;2.50;;
16246;SDS011;8231;50.866;7.944;2023-05-10T11:44:23;4.00;;;1.88;;
16246;SDS011;8231;50.866;7.944;2023-05-10T11:46:58;1.98;;;1.88;;
16246;SDS011;8231;50.866;7.944;2023-05-10T11:49:28;6.55;;;1.77;;
16246;SDS011;8231;50.866;7.944;2023-05-10T11:52:03;2.08;;;1.70;;
16246;SDS011;8231;50.866;7.944;2023-05-10T11:54:32;3.25;;;2.25;;
16246;SDS011;8231;50.866;7.944;2023-05-10T11:57:01;2.10;;;1.95;;
16246;SDS011;8231;50.866;7.944;2023-05-10T11:59:30;2.47;;;2.28;;
16246;SDS011;8231;50.866;7.944;2023-05-10T12:01:58;3.28;;;2.22;;
16246;SDS011;8231;50.866;7.944;2023-05-10T12:04:26;3.65;;;2.22;;
16246;SDS011;8231;50.866;7.944;2023-05-10T12:06:56;3.50;;;2.35;;
16246;SDS011;8231;50.866;7.944;2023-05-10T12:09:25;2.53;;;2.30;;
16246;SDS011;8231;50.866;7.944;2023-05-10T12:12:09;4.90;;;2.70;;
16246;SDS011;8231;50.866;7.944;2023-05-10T12:14:38;3.30;;;3.03;;
16246;SDS011;8231;50.866;7.944;2023-05-10T12:17:06;3.90;;;3.60;;
16246;SDS011;8231;50.866;7.944;2023-05-10T12:19:41;3.35;;;3.15;;
16246;SDS011;8231;50.866;7.944;2023-05-10T12:22:10;5.25;;;3.60;;
16246;SDS011;8231;50.866;7.944;2023-05-10T12:24:38;3.60;;;3.30;;
16246;SDS011;8231;50.866;7.944;2023-05-10T12:27:07;4.88;;;3.60;;
16246;SDS011;8231;50.866;7.944;2023-05-10T12:29:36;3.30;;;3.00;;
16246;SDS011;8231;50.866;7.944;2023-05-10T12:32:08;2.75;;;2.55;;
16246;SDS011;8231;50.866;7.944;2023-05-10T12:34:36;6.03;;;3.05;;
16246;SDS011;8231;50.866;7.944;2023-05-10T12:37:06;3.35;;;3.15;;
16246;SDS011;8231;50.866;7.944;2023-05-10T12:39:41;3.10;;;2.80;;
16246;SDS011;8231;50.866;7.944;2023-05-10T12:42:10;7.57;;;2.95;;
16246;SDS011;8231;50.866;7.944;2023-05-10T12:44:39;2.83;;;2.63;;
16246;SDS011;8231;50.866;7.944;2023-05-10T12:47:07;3.38;;;3.10;;
16246;SDS011;8231;50.866;7.944;2023-05-10T12:49:36;3.83;;;3.53;;
16246;SDS011;8231;50.866;7.944;2023-05-10T12:52:05;4.35;;;3.85;;
16246;SDS011;8231;50.866;7.944;2023-05-10T12:54:34;4.20;;;3.80;;
16246;SDS011;8231;50.866;7.944;2023-05-10T12:57:02;4.70;;;3.92;;
16246;SDS011;8231;50.866;7.944;2023-05-10T12:59:31;4.38;;;4.00;;
16246;SDS011;8231;50.866;7.944;2023-05-10T13:02:02;4.25;;;3.90;;
16246;SDS011;8231;50.866;7.944;2023-05-10T13:04:31;4.68;;;4.18;;
16246;SDS011;8231;50.866;7.944;2023-05-10T13:06:59;4.10;;;3.70;;
16246;SDS011;8231;50.866;7.944;2023-05-10T13:09:29;4.80;;;4.32;;
16246;SDS011;8231;50.866;7.944;2023-05-10T13:11:57;4.15;;;3.85;;
16246;SDS011;8231;50.866;7.944;2023-05-10T13:14:26;4.18;;;3.88;;
16246;SDS011;8231;50.866;7.944;2023-05-10T13:16:54;4.40;;;4.10;;
16246;SDS011;8231;50.866;7.944;2023-05-10T13:19:22;4.70;;;4.30;;
16246;SDS011;8231;50.866;7.944;2023-05-10T13:21:51;5.80;;;4.20;;
16246;SDS011;8231;50.866;7.944;2023-05-10T13:24:19;4.68;;;4.28;;
16246;SDS011;8231;50.866;7.944;2023-05-10T13:27:07;4.88;;;4.47;;
16246;SDS011;8231;50.866;7.944;2023-05-10T13:29:35;5.28;;;4.60;;
16246;SDS011;8231;50.866;7.944;2023-05-10T13:32:04;5.20;;;4.80;;
16246;SDS011;8231;50.866;7.944;2023-05-10T13:34:32;5.82;;;5.22;;
16246;SDS011;8231;50.866;7.944;2023-05-10T13:37:02;6.38;;;5.78;;
16246;SDS011;8231;50.866;7.944;2023-05-10T13:39:30;7.47;;;6.78;;
16246;SDS011;8231;50.866;7.944;2023-05-10T13:42:02;6.82;;;6.22;;
16246;SDS011;8231;50.866;7.944;2023-05-10T13:44:30;8.52;;;7.72;;
16246;SDS011;8231;50.866;7.944;2023-05-10T13:47:00;10.02;;;7.95;;
16246;SDS011;8231;50.866;7.944;2023-05-10T13:49:29;11.85;;;8.68;;
16246;SDS011;8231;50.866;7.944;2023-05-10T13:51:57;10.45;;;9.45;;
16246;SDS011;8231;50.866;7.944;2023-05-10T13:54:25;9.90;;;8.65;;
16246;SDS011;8231;50.866;7.944;2023-05-10T13:56:55;9.60;;;8.48;;
16246;SDS011;8231;50.866;7.944;2023-05-10T13:59:25;11.05;;;9.98;;
16246;SDS011;8231;50.866;7.944;2023-05-10T14:01:53;10.82;;;9.82;;
16246;SDS011;8231;50.866;7.944;2023-05-10T14:04:22;10.55;;;9.50;;
16246;SDS011;8231;50.866;7.944;2023-05-10T14:06:51;10.45;;;9.50;;
16246;SDS011;8231;50.866;7.944;2023-05-10T14:09:19;10.18;;;9.18;;
16246;SDS011;8231;50.866;7.944;2023-05-10T14:11:48;10.43;;;9.43;;
16246;SDS011;8231;50.866;7.944;2023-05-10T14:14:16;11.07;;;10.07;;
16246;SDS011;8231;50.866;7.944;2023-05-10T14:16:46;11.57;;;10.38;;
16246;SDS011;8231;50.866;7.944;2023-05-10T14:19:14;9.45;;;8.57;;
16246;SDS011;8231;50.866;7.944;2023-05-10T14:21:42;10.32;;;9.32;;
16246;SDS011;8231;50.866;7.944;2023-05-10T14:24:11;9.95;;;8.95;;
16246;SDS011;8231;50.866;7.944;2023-05-10T14:26:39;9.95;;;8.93;;
16246;SDS011;8231;50.866;7.944;2023-05-10T14:29:08;10.10;;;8.82;;
16246;SDS011;8231;50.866;7.944;2023-05-10T14:31:38;8.63;;;7.22;;
16246;SDS011;8231;50.866;7.944;2023-05-10T14:34:07;9.60;;;8.60;;
16246;SDS011;8231;50.866;7.944;2023-05-10T14:36:36;8.77;;;7.55;;
16246;SDS011;8231;50.866;7.944;2023-05-10T14:39:04;9.05;;;8.05;;
16246;SDS011;8231;50.866;7.944;2023-05-10T14:41:33;9.57;;;7.50;;
16246;SDS011;8231;50.866;7.944;2023-05-10T14:44:02;9.10;;;8.27;;
16246;SDS011;8231;50.866;7.944;2023-05-10T14:46:30;7.93;;;7.13;;
16246;SDS011;8231;50.866;7.944;2023-05-10T14:49:01;8.32;;;7.53;;
16246;SDS011;8231;50.866;7.944;2023-05-10T14:51:31;7.38;;;6.45;;
16246;SDS011;8231;50.866;7.944;2023-05-10T14:53:59;6.45;;;5.88;;
16246;SDS011;8231;50.866;7.944;2023-05-10T14:56:27;8.02;;;6.70;;
16246;SDS011;8231;50.866;7.944;2023-05-10T14:58:56;12.27;;;6.50;;
16246;SDS011;8231;50.866;7.944;2023-05-10T15:01:24;7.45;;;5.90;;
16246;SDS011;8231;50.866;7.944;2023-05-10T15:03:53;6.97;;;5.93;;
16246;SDS011;8231;50.866;7.944;2023-05-10T15:06:22;6.70;;;6.00;;
16246;SDS011;8231;50.866;7.944;2023-05-10T15:08:53;7.22;;;5.57;;
16246;SDS011;8231;50.866;7.944;2023-05-10T15:11:21;7.13;;;6.47;;
16246;SDS011;8231;50.866;7.944;2023-05-10T15:13:49;9.13;;;7.63;;
16246;SDS011;8231;50.866;7.944;2023-05-10T15:16:18;7.90;;;7.05;;
16246;SDS011;8231;50.866;7.944;2023-05-10T15:18:46;9.77;;;7.88;;
16246;SDS011;8231;50.866;7.944;2023-05-10T15:21:15;10.07;;;7.75;;
16246;SDS011;8231;50.866;7.944;2023-05-10T15:23:44;11.00;;;10.00;;
16246;SDS011;8231;50.866;7.944;2023-05-10T15:26:14;18.50;;;16.63;;
16246;SDS011;8231;50.866;7.944;2023-05-10T15:28:42;20.77;;;18.75;;
16246;SDS011;8231;50.866;7.944;2023-05-10T15:31:10;17.13;;;15.35;;
16246;SDS011;8231;50.866;7.944;2023-05-10T15:33:39;11.95;;;10.85;;